Time;durP1;ratioP1;P1;durP2;ratioP2;P2;SDS_P1;SDS_P2;PMS_P1;PMS_P2;Temp;Humidity;BMP_temperature;BMP_pressure;BME280_temperature;BME280_humidity;BME280_pressure;Samples;Min_cycle;Max_cycle;Signal;HPM_P1;HPM_P2
2022/04/24 00:03:44;;;;;;;;;;;;;;;17.87;46.69;100276.04;101837;1341;61330;-82
2022/04/24 00:07:01;;;;;;;;;;;;;;;17.87;46.87;100278.21;101708;1343;71590;-82
2022/04/24 00:09:48;;;;;;;;;;;;;;;17.87;46.79;100277.50;101620;1346;75698;-79
2022/04/24 00:12:44;;;;;;;;;;;;;;;;;;;;;
2022/04/24 00:16:08;;;;;;;;;;;;;;;17.86;46.73;100281.27;101615;1346;61284;-85
2022/04/24 00:19:04;;;;;;;;;;;;;;;17.86;46.85;100284.83;101627;1346;72919;-88
2022/04/24 00:22:05;;;;;;;;;;;;;;;;;;;;;
2022/04/24 00:25:32;;;;;;;;;;;;;;;17.86;46.80;100287.19;101711;1343;61400;-84
2022/04/24 00:28:27;;;;;;;;;;;;;;;17.86;46.76;100287.19;101775;1342;60612;-82
2022/04/24 00:31:59;;;;;;;;;;;;;;;17.85;46.83;100286.67;101878;1340;72944;-85
2022/04/24 00:34:40;;;;;;;;;;;;;;;17.86;46.78;100294.29;101808;1341;75945;-86
2022/04/24 00:37:51;;;;;;;;;;;;;;;;;;;;;
2022/04/24 00:40:37;;;;;;;;;;;;;;;;;;;;;
2022/04/24 00:47:06;;;;;;;;;;;;;;;17.85;46.86;100289.01;102313;1335;75930;-84
2022/04/24 00:49:43;;;;;;;;;;;;;;;17.85;46.81;100293.29;102297;1333;61578;-83
2022/04/24 00:52:21;;;;;;;;;;;;;;;;;;;;;
2022/04/24 00:55:55;;;;;;;;;;;;;;;17.84;46.74;100297.79;101973;1335;74111;-89
2022/04/24 00:58:28;;;;;;;;;;;;;;;17.84;46.84;100295.11;102144;1330;74944;-81
2022/04/24 01:01:16;;;;;;;;;;;;;;;17.84;46.74;100297.80;102562;1331;61764;-82
2022/04/24 01:04:11;;;;;;;;;;;;;;;17.84;46.81;100295.14;102387;1333;60042;-83
2022/04/24 01:08:02;;;;;;;;;;;;;;;17.84;46.75;100295.66;102124;1334;71779;-86
2022/04/24 01:11:15;;;;;;;;;;;;;;;17.84;46.77;100294.98;102079;1335;74889;-83
2022/04/24 01:14:25;;;;;;;;;;;;;;;17.84;46.88;100295.15;102073;1335;61879;-84
2022/04/24 01:17:20;;;;;;;;;;;;;;;17.84;46.75;100285.02;102491;1332;61539;-85
2022/04/24 01:20:48;;;;;;;;;;;;;;;17.84;46.87;100290.52;102450;1332;71653;-83
2022/04/24 01:23:46;;;;;;;;;;;;;;;;;;;;;
2022/04/24 01:26:35;;;;;;;;;;;;;;;17.83;46.81;100293.05;102608;1329;61329;-83
2022/04/24 01:29:59;;;;;;;;;;;;;;;;;;;;;
2022/04/24 01:32:52;;;;;;;;;;;;;;;17.84;46.74;100291.25;102205;1332;73835;-88
2022/04/24 01:36:11;;;;;;;;;;;;;;;;;;;;;
2022/04/24 01:39:18;;;;;;;;;;;;;;;;;;;;;
2022/04/24 01:42:14;;;;;;;;;;;;;;;;;;;;;
2022/04/24 01:45:32;;;;;;;;;;;;;;;17.83;46.75;100304.80;102134;1334;72084;-83
2022/04/24 01:48:30;;;;;;;;;;;;;;;;;;;;;
2022/04/24 01:51:49;;;;;;;;;;;;;;;;;;;;;
2022/04/24 01:54:30;;;;;;;;;;;;;;;17.83;46.68;100305.16;101727;1347;61320;-80
2022/04/24 02:00:55;;;;;;;;;;;;;;;17.83;46.75;100310.36;100784;1357;73700;-82
2022/04/24 02:04:12;;;;;;;;;;;;;;;;;;;;;
2022/04/24 02:07:28;;;;;;;;;;;;;;;17.83;46.76;100314.08;101212;1353;61475;-84
2022/04/24 02:10:46;;;;;;;;;;;;;;;17.82;46.78;100318.94;100693;1358;70638;-83
2022/04/24 02:13:45;;;;;;;;;;;;;;;17.82;46.77;100319.27;100929;1355;76113;-82
2022/04/24 02:16:30;;;;;;;;;;;;;;;17.82;46.72;100326.25;100970;1356;61227;-84
2022/04/24 02:19:21;;;;;;;;;;;;;;;17.82;46.72;100322.66;100968;1356;61460;-79
2022/04/24 02:22:50;;;;;;;;;;;;;;;17.82;46.65;100320.20;101007;1353;71766;-82
2022/04/24 02:26:20;;;;;;;;;;;;;;;17.82;46.73;100315.90;101394;1347;74926;-82
2022/04/24 02:29:22;;;;;;;;;;;;;;;17.82;46.72;100318.96;101582;1350;61325;-82
2022/04/24 02:32:09;;;;;;;;;;;;;;;17.82;46.69;100321.28;101697;1344;61359;-84
2022/04/24 02:35:36;;;;;;;;;;;;;;;17.81;46.74;100325.40;101959;1338;71521;-84
2022/04/24 02:38:42;;;;;;;;;;;;;;;17.82;46.72;100330.73;102253;1335;75971;-80
2022/04/24 02:41:37;;;;;;;;;;;;;;;;;;;;;
2022/04/24 02:48:13;;;;;;;;;;;;;;;;;;;;;
2022/04/24 02:51:19;;;;;;;;;;;;;;;17.81;46.72;100351.39;102306;1335;76374;-89
2022/04/24 02:54:34;;;;;;;;;;;;;;;17.81;46.62;100349.96;102559;1329;61322;-86
2022/04/24 03:00:42;;;;;;;;;;;;;;;17.81;46.56;100350.52;101939;1339;72901;-84
2022/04/24 03:07:06;;;;;;;;;;;;;;;17.81;46.61;100360.84;101548;1350;63653;-82
2022/04/24 03:10:21;;;;;;;;;;;;;;;17.81;46.61;100365.47;101543;1350;61358;-80
2022/04/24 03:13:47;;;;;;;;;;;;;;;;;;;;;
2022/04/24 03:17:02;;;;;;;;;;;;;;;;;;;;;
2022/04/24 03:20:20;;;;;;;;;;;;;;;17.81;46.56;100375.25;99937;1368;59312;-85
2022/04/24 03:23:16;;;;;;;;;;;;;;;;;;;;;
2022/04/24 03:26:24;;;;;;;;;;;;;;;17.80;46.56;100380.29;99641;1370;72347;-82
2022/04/24 03:29:52;;;;;;;;;;;;;;;17.80;46.64;100385.12;99971;1367;73749;-89
2022/04/24 03:32:47;;;;;;;;;;;;;;;;;;;;;
2022/04/24 03:36:06;;;;;;;;;;;;;;;17.80;46.60;100389.36;99915;1368;61492;-84
2022/04/24 03:39:13;;;;;;;;;;;;;;;17.81;46.50;100388.28;100338;1362;74154;-84
2022/04/24 03:41:47;;;;;;;;;;;;;;;17.80;46.53;100389.54;100301;1362;76694;-81
2022/04/24 03:45:04;;;;;;;;;;;;;;;;;;;;;
2022/04/24 03:47:52;;;;;;;;;;;;;;;;;;;;;
2022/04/24 03:50:37;;;;;;;;;;;;;;;;;;;;;
2022/04/24 03:54:29;;;;;;;;;;;;;;;17.80;46.52;100396.27;101664;1343;74721;-81
2022/04/24 03:57:38;;;;;;;;;;;;;;;17.80;46.54;100398.61;101813;1338;61443;-85
2022/04/24 04:00:53;;;;;;;;;;;;;;;17.80;46.50;100400.59;102085;1332;61671;-84
2022/04/24 04:03:37;;;;;;;;;;;;;;;17.81;46.39;100404.64;102234;1332;71540;-84
2022/04/24 04:06:39;;;;;;;;;;;;;;;17.81;46.40;100407.34;102547;1332;75743;-86
2022/04/24 04:10:30;;;;;;;;;;;;;;;17.81;46.35;100412.27;102743;1326;61330;-82
2022/04/24 04:13:11;;;;;;;;;;;;;;;17.81;46.46;100414.77;102577;1329;61333;-82
2022/04/24 04:16:49;;;;;;;;;;;;;;;17.81;46.39;100412.81;102518;1332;74248;-86
2022/04/24 04:19:39;;;;;;;;;;;;;;;17.81;46.37;100416.52;102573;1326;75870;-81
2022/04/24 04:22:35;;;;;;;;;;;;;;;;;;;;;
2022/04/24 04:25:31;;;;;;;;;;;;;;;17.81;46.51;100414.23;102565;1332;61464;-81
2022/04/24 04:28:40;;;;;;;;;;;;;;;17.81;46.37;100415.83;102573;1332;72267;-85
2022/04/24 04:31:29;;;;;;;;;;;;;;;17.81;46.28;100415.83;102038;1338;75995;-86
2022/04/24 04:34:25;;;;;;;;;;;;;;;;;;;;;
2022/04/24 04:37:29;;;;;;;;;;;;;;;17.81;46.47;100421.36;101891;1341;61450;-85
2022/04/24 04:40:26;;;;;;;;;;;;;;;;;;;;;
2022/04/24 04:47:09;;;;;;;;;;;;;;;17.82;46.34;100432.73;101828;1340;61619;-82
2022/04/24 04:50:04;;;;;;;;;;;;;;;;;;;;;
2022/04/24 04:53:10;;;;;;;;;;;;;;;17.82;46.43;100440.00;102229;1334;76000;-80
2022/04/24 04:56:20;;;;;;;;;;;;;;;17.82;46.44;100442.83;101860;1340;76351;-85
2022/04/24 04:59:05;;;;;;;;;;;;;;;;;;;;;
2022/04/24 05:02:02;;;;;;;;;;;;;;;17.82;46.36;100458.66;101871;1340;61349;-84
2022/04/24 05:05:08;;;;;;;;;;;;;;;17.83;46.32;100460.59;101852;1340;74391;-84
2022/04/24 05:11:30;;;;;;;;;;;;;;;17.83;46.40;100458.44;102337;1335;61929;-84
2022/04/24 05:14:34;;;;;;;;;;;;;;;17.84;46.36;100460.72;102343;1334;61594;-84
2022/04/24 05:20:42;;;;;;;;;;;;;;;17.84;46.30;100464.77;101916;1338;75021;-87
2022/04/24 05:23:52;;;;;;;;;;;;;;;;;;;;;
2022/04/24 05:26:38;;;;;;;;;;;;;;;17.85;46.35;100469.85;102342;1334;61270;-82
2022/04/24 05:29:41;;;;;;;;;;;;;;;;;;;;;
2022/04/24 05:32:59;;;;;;;;;;;;;;;17.87;46.35;100469.92;102253;1329;73504;-83
2022/04/24 05:35:57;;;;;;;;;;;;;;;;;;;;;
2022/04/24 05:39:29;;;;;;;;;;;;;;;17.88;46.26;100466.82;102685;1329;61476;-83
2022/04/24 05:42:10;;;;;;;;;;;;;;;17.90;46.34;100467.61;102622;1328;72865;-83
2022/04/24 05:45:18;;;;;;;;;;;;;;;17.91;46.26;100462.77;102594;1328;74832;-85
2022/04/24 05:48:23;;;;;;;;;;;;;;;17.92;46.33;100466.44;102571;1329;61403;-83
2022/04/24 05:51:18;;;;;;;;;;;;;;;;;;;;;
2022/04/24 05:54:29;;;;;;;;;;;;;;;17.93;46.32;100476.86;101923;1338;73829;-81
2022/04/24 05:57:18;;;;;;;;;;;;;;;17.94;46.26;100481.10;102001;1335;75012;-78
2022/04/24 06:00:30;;;;;;;;;;;;;;;17.95;46.23;100482.10;101933;1340;61328;-85
2022/04/24 06:04:01;;;;;;;;;;;;;;;17.95;46.20;100480.85;101916;1341;61339;-82
2022/04/24 06:06:31;;;;;;;;;;;;;;;17.96;46.24;100480.08;101839;1340;73075;-82
2022/04/24 06:09:31;;;;;;;;;;;;;;;17.97;46.18;100482.90;101906;1341;75847;-86
2022/04/24 06:12:58;;;;;;;;;;;;;;;17.97;46.21;100482.35;102044;1335;61172;-82
2022/04/24 06:15:54;;;;;;;;;;;;;;;;;;;;;
2022/04/24 06:19:29;;;;;;;;;;;;;;;;;;;;;
2022/04/24 06:26:02;;;;;;;;;;;;;;;17.99;46.12;100477.25;101831;1340;61944;-82
2022/04/24 06:29:17;;;;;;;;;;;;;;;17.99;46.16;100474.36;102000;1335;62410;-86
2022/04/24 06:32:08;;;;;;;;;;;;;;;;;;;;;
2022/04/24 06:35:16;;;;;;;;;;;;;;;;;;;;;
2022/04/24 06:38:24;;;;;;;;;;;;;;;18.01;46.08;100474.80;101949;1338;61595;-83
2022/04/24 06:41:39;;;;;;;;;;;;;;;;;;;;;
2022/04/24 06:44:28;;;;;;;;;;;;;;;;;;;;;
2022/04/24 06:47:43;;;;;;;;;;;;;;;18.03;46.11;100475.59;101876;1341;73453;-82
2022/04/24 06:50:35;;;;;;;;;;;;;;;18.03;46.08;100476.09;97416;1347;5967231;-82
2022/04/24 06:53:47;;;;;;;;;;;;;;;18.02;46.13;100482.54;101048;1356;61367;-83
2022/04/24 06:56:41;;;;;;;;;;;;;;;18.03;46.14;100482.52;101396;1350;61220;-83
2022/04/24 07:02:41;;;;;;;;;;;;;;;18.03;46.14;100489.79;101098;1354;75838;-81
2022/04/24 07:05:27;;;;;;;;;;;;;;;18.03;46.12;100488.52;101165;1354;61452;-85
2022/04/24 07:08:19;;;;;;;;;;;;;;;18.04;46.15;100491.00;100110;1362;61975;-84
2022/04/24 07:11:28;;;;;;;;;;;;;;;;;;;;;
2022/04/24 07:14:46;;;;;;;;;;;;;;;18.04;46.20;100487.44;100753;1357;73680;-83
2022/04/24 07:17:51;;;;;;;;;;;;;;;18.04;46.12;100482.98;100769;1357;61366;-85
2022/04/24 07:20:41;;;;;;;;;;;;;;;18.04;46.13;100481.90;100804;1357;61387;-82
2022/04/24 07:23:37;;;;;;;;;;;;;;;;;;;;;
2022/04/24 07:26:51;;;;;;;;;;;;;;;;;;;;;
2022/04/24 07:29:49;;;;;;;;;;;;;;;;;;;;;
2022/04/24 07:33:05;;;;;;;;;;;;;;;18.05;46.19;100476.14;100511;1360;61433;-83
2022/04/24 07:36:00;;;;;;;;;;;;;;;18.05;46.31;100479.70;100276;1361;73074;-84
2022/04/24 07:39:16;;;;;;;;;;;;;;;;;;;;;
2022/04/24 07:42:25;;;;;;;;;;;;;;;18.05;46.39;100487.15;100577;1358;61338;-83
2022/04/24 07:49:03;;;;;;;;;;;;;;;18.05;46.27;100489.45;100860;1355;73177;-86
2022/04/24 07:51:46;;;;;;;;;;;;;;;18.06;46.45;100492.45;100251;1361;73668;-81
2022/04/24 07:55:13;;;;;;;;;;;;;;;18.06;46.53;100492.96;100210;1364;61436;-86
2022/04/24 07:58:07;;;;;;;;;;;;;;;18.06;46.51;100489.92;100263;1364;62889;-84
2022/04/24 08:01:04;;;;;;;;;;;;;;;18.06;46.40;100488.86;100212;1364;73341;-83
2022/04/24 08:04:06;;;;;;;;;;;;;;;;;;;;;
2022/04/24 08:07:23;;;;;;;;;;;;;;;;;;;;;
2022/04/24 08:10:50;;;;;;;;;;;;;;;;;;;;;
2022/04/24 08:13:58;;;;;;;;;;;;;;;;;;;;;
2022/04/24 08:16:58;;;;;;;;;;;;;;;18.07;46.48;100482.05;100351;1363;72951;-83
2022/04/24 08:20:09;;;;;;;;;;;;;;;;;;;;;
2022/04/24 08:23:15;;;;;;;;;;;;;;;;;;;;;
2022/04/24 08:26:34;;;;;;;;;;;;;;;;;;;;;
2022/04/24 08:29:32;;;;;;;;;;;;;;;18.07;46.64;100465.85;100188;1362;74862;-83
2022/04/24 08:32:21;;;;;;;;;;;;;;;18.08;46.67;100461.34;100021;1367;61787;-83
2022/04/24 08:35:30;;;;;;;;;;;;;;;18.08;46.61;100456.54;100039;1367;61154;-86
2022/04/24 08:39:01;;;;;;;;;;;;;;;18.07;46.57;100455.15;100163;1365;73107;-86
2022/04/24 08:41:33;;;;;;;;;;;;;;;;;;;;;
2022/04/24 08:44:55;;;;;;;;;;;;;;;18.07;46.60;100457.29;100326;1362;61384;-81
2022/04/24 08:48:10;;;;;;;;;;;;;;;18.07;46.66;100450.87;100246;1364;61425;-90
2022/04/24 08:51:25;;;;;;;;;;;;;;;;;;;;;
2022/04/24 08:54:26;;;;;;;;;;;;;;;;;;;;;
2022/04/24 08:57:56;;;;;;;;;;;;;;;18.08;46.78;100446.58;100248;1364;61361;-80
2022/04/24 09:00:47;;;;;;;;;;;;;;;18.07;46.67;100443.55;100247;1363;60695;-81
2022/04/24 09:04:08;;;;;;;;;;;;;;;18.08;46.73;100441.56;100328;1357;72877;-81
2022/04/24 09:06:51;;;;;;;;;;;;;;;18.08;46.75;100437.82;100873;1354;74191;-81
2022/04/24 09:10:14;;;;;;;;;;;;;;;;;;;;;
2022/04/24 09:13:07;;;;;;;;;;;;;;;18.08;46.72;100434.98;100924;1354;61260;-86
2022/04/24 09:15:55;;;;;;;;;;;;;;;18.09;46.84;100434.95;100962;1354;74088;-86
2022/04/24 09:18:53;;;;;;;;;;;;;;;18.08;46.91;100433.00;101049;1354;76156;-83
2022/04/24 09:21:49;;;;;;;;;;;;;;;18.08;46.81;100431.06;101401;1348;61260;-80
2022/04/24 09:24:57;;;;;;;;;;;;;;;;;;;;;
2022/04/24 09:27:48;;;;;;;;;;;;;;;18.08;46.83;100426.96;101799;1337;73068;-82
2022/04/24 09:31:06;;;;;;;;;;;;;;;;;;;;;
2022/04/24 09:34:31;;;;;;;;;;;;;;;18.08;46.79;100423.39;102462;1331;61874;-86
2022/04/24 09:37:42;;;;;;;;;;;;;;;;;;;;;
2022/04/24 09:40:29;;;;;;;;;;;;;;;;;;;;;
2022/04/24 09:43:44;;;;;;;;;;;;;;;;;;;;;
2022/04/24 09:46:50;;;;;;;;;;;;;;;18.08;46.89;100410.04;102342;1329;61527;-84
2022/04/24 09:49:56;;;;;;;;;;;;;;;18.08;46.82;100405.92;102218;1334;62376;-85
2022/04/24 09:53:05;;;;;;;;;;;;;;;18.08;46.87;100395.96;102333;1334;72586;-84
2022/04/24 09:56:11;;;;;;;;;;;;;;;18.09;46.81;100389.16;102827;1320;77694;-81
2022/04/24 09:59:27;;;;;;;;;;;;;;;;;;;;;
2022/04/24 10:02:23;;;;;;;;;;;;;;;;;;;;;
2022/04/24 10:05:52;;;;;;;;;;;;;;;;;;;;;
2022/04/24 10:11:58;;;;;;;;;;;;;;;;;;;;;
2022/04/24 10:15:29;;;;;;;;;;;;;;;18.09;46.91;100380.26;102516;1332;61468;-81
2022/04/24 10:18:10;;;;;;;;;;;;;;;18.09;46.91;100377.54;102702;1329;71650;-83
2022/04/24 10:21:11;;;;;;;;;;;;;;;;;;;;;
2022/04/24 10:24:32;;;;;;;;;;;;;;;18.11;46.82;100380.33;102334;1333;61397;-83
2022/04/24 10:27:37;;;;;;;;;;;;;;;;;;;;;
2022/04/24 10:30:16;;;;;;;;;;;;;;;;;;;;;
2022/04/24 10:33:55;;;;;;;;;;;;;;;18.11;46.86;100380.35;101808;1340;73637;-82
2022/04/24 10:36:51;;;;;;;;;;;;;;;18.11;46.81;100387.30;101686;1344;61542;-85
2022/04/24 10:39:40;;;;;;;;;;;;;;;18.10;46.79;100382.49;101708;1342;61337;-83
2022/04/24 10:42:57;;;;;;;;;;;;;;;18.11;46.92;100385.46;101662;1345;71570;-80
2022/04/24 10:45:52;;;;;;;;;;;;;;;18.11;46.86;100379.95;101677;1345;73731;-84
2022/04/24 10:49:08;;;;;;;;;;;;;;;;;;;;;
2022/04/24 10:53:06;;;;;;;;;;;;;;;18.11;46.89;100382.25;101725;1344;62024;-83
2022/04/24 10:55:57;;;;;;;;;;;;;;;18.12;46.80;100383.63;101691;1344;72996;-85
2022/04/24 10:58:59;;;;;;;;;;;;;;;;;;;;;
2022/04/24 11:02:01;;;;;;;;;;;;;;;18.12;46.87;100373.13;101933;1338;61196;-83
2022/04/24 11:08:17;;;;;;;;;;;;;;;18.12;46.78;100374.20;102469;1328;71727;-82
2022/04/24 11:11:06;;;;;;;;;;;;;;;18.12;46.87;100364.91;102544;1329;74844;-83
2022/04/24 11:14:01;;;;;;;;;;;;;;;18.12;46.85;100370.77;102326;1331;61228;-83
2022/04/24 11:16:50;;;;;;;;;;;;;;;18.13;46.85;100364.71;102502;1332;61524;-81
2022/04/24 11:19:59;;;;;;;;;;;;;;;18.13;46.81;100358.81;102426;1329;74370;-86
2022/04/24 11:26:15;;;;;;;;;;;;;;;18.13;46.79;100359.52;102327;1335;61077;-84
2022/04/24 11:29:40;;;;;;;;;;;;;;;;;;;;;
2022/04/24 11:32:57;;;;;;;;;;;;;;;;;;;;;
2022/04/24 11:35:54;;;;;;;;;;;;;;;18.14;46.78;100354.30;101647;1341;74895;-80
2022/04/24 11:39:01;;;;;;;;;;;;;;;18.14;46.84;100351.98;101561;1348;61527;-81
2022/04/24 11:42:00;;;;;;;;;;;;;;;;;;;;;
2022/04/24 11:51:49;;;;;;;;;;;;;;;18.15;46.72;100338.70;101342;1350;61768;-79
2022/04/24 11:55:08;;;;;;;;;;;;;;;;;;;;;
2022/04/24 11:58:31;;;;;;;;;;;;;;;18.16;46.67;100334.40;101773;1342;71935;-81
2022/04/24 12:01:53;;;;;;;;;;;;;;;18.16;46.73;100329.05;101696;1347;74903;-87
2022/04/24 12:04:49;;;;;;;;;;;;;;;;;;;;;
2022/04/24 12:11:22;;;;;;;;;;;;;;;;;;;;;
2022/04/24 12:14:07;;;;;;;;;;;;;;;18.18;46.71;100325.52;102537;1334;74944;-80
2022/04/24 12:17:18;;;;;;;;;;;;;;;18.19;46.69;100324.39;102540;1332;61957;-84
2022/04/24 12:20:23;;;;;;;;;;;;;;;18.19;46.71;100318.31;102126;1335;61765;-82
2022/04/24 12:23:34;;;;;;;;;;;;;;;18.19;46.68;100315.09;102107;1335;72853;-84
2022/04/24 12:26:34;;;;;;;;;;;;;;;18.21;46.66;100317.86;102492;1331;74592;-82
2022/04/24 12:29:49;;;;;;;;;;;;;;;18.21;46.68;100306.11;102484;1331;61352;-86
2022/04/24 12:33:03;;;;;;;;;;;;;;;18.21;46.69;100302.18;102116;1335;61322;-83
2022/04/24 12:35:50;;;;;;;;;;;;;;;18.21;46.68;100299.48;102128;1335;71455;-87
2022/04/24 12:38:44;;;;;;;;;;;;;;;18.21;46.64;100299.27;101868;1337;74984;-87
2022/04/24 12:41:50;;;;;;;;;;;;;;;18.22;46.66;100299.09;101951;1336;61345;-84
2022/04/24 12:44:44;;;;;;;;;;;;;;;18.22;46.54;100296.06;101867;1342;61053;-81
2022/04/24 12:47:56;;;;;;;;;;;;;;;;;;;;;
2022/04/24 12:50:56;;;;;;;;;;;;;;;18.23;46.67;100292.08;101777;1341;74263;-84
2022/04/24 12:53:27;;;;;;;;;;;;;;;18.23;46.53;100286.52;101933;1338;61310;-85
2022/04/24 12:56:43;;;;;;;;;;;;;;;;;;;;;
2022/04/24 12:59:32;;;;;;;;;;;;;;;18.24;46.50;100284.70;102420;1332;74451;-81
2022/04/24 13:02:25;;;;;;;;;;;;;;;18.25;46.54;100281.44;102459;1332;74931;-84
2022/04/24 13:05:22;;;;;;;;;;;;;;;;;;;;;
2022/04/24 13:08:17;;;;;;;;;;;;;;;18.26;46.55;100271.54;102470;1332;61233;-81
2022/04/24 13:11:43;;;;;;;;;;;;;;;18.27;46.48;100278.25;102399;1332;71061;-84
2022/04/24 13:14:29;;;;;;;;;;;;;;;18.28;46.56;100271.29;102579;1329;74742;-84
2022/04/24 13:20:36;;;;;;;;;;;;;;;18.29;46.48;100263.00;102455;1332;61156;-84
2022/04/24 13:23:50;;;;;;;;;;;;;;;18.29;46.49;100259.95;102438;1335;71587;-85
2022/04/24 13:27:17;;;;;;;;;;;;;;;18.30;46.49;100255.44;102417;1329;73444;-85
2022/04/24 13:30:05;;;;;;;;;;;;;;;18.30;46.42;100257.55;102454;1334;61193;-82
2022/04/24 13:33:01;;;;;;;;;;;;;;;;;;;;;
2022/04/24 13:36:29;;;;;;;;;;;;;;;;;;;;;
2022/04/24 13:39:15;;;;;;;;;;;;;;;18.33;46.44;100252.73;101667;1347;74909;-82
2022/04/24 13:42:16;;;;;;;;;;;;;;;;;;;;;
2022/04/24 13:44:47;;;;;;;;;;;;;;;18.34;46.41;100253.02;101703;1347;62003;-86
2022/04/24 13:48:01;;;;;;;;;;;;;;;18.34;46.39;100251.04;101838;1341;71677;-87
2022/04/24 13:51:05;;;;;;;;;;;;;;;;;;;;;
2022/04/24 13:54:05;;;;;;;;;;;;;;;18.36;46.26;100249.36;101727;1344;61355;-84
2022/04/24 13:56:59;;;;;;;;;;;;;;;18.36;46.28;100242.89;101728;1344;61423;-84
2022/04/24 14:00:31;;;;;;;;;;;;;;;18.36;46.28;100237.54;101888;1341;72870;-86
2022/04/24 14:02:51;;;;;;;;;;;;;;;18.37;46.39;100237.50;101817;1341;74851;-84
2022/04/24 14:06:06;;;;;;;;;;;;;;;18.38;46.29;100236.20;101799;1342;61225;-85
2022/04/24 14:08:45;;;;;;;;;;;;;;;18.38;46.24;100233.86;101789;1345;61547;-86
2022/04/24 14:12:01;;;;;;;;;;;;;;;;;;;;;
2022/04/24 14:15:05;;;;;;;;;;;;;;;18.39;46.25;100227.91;101816;1341;75898;-81
2022/04/24 14:18:25;;;;;;;;;;;;;;;18.40;46.24;100224.83;101925;1338;61484;-86
2022/04/24 14:24:04;;;;;;;;;;;;;;;18.40;46.28;100222.27;101798;1344;72754;-87
2022/04/24 14:27:19;;;;;;;;;;;;;;;18.41;46.30;100219.77;101774;1344;77362;-85
2022/04/24 14:30:28;;;;;;;;;;;;;;;18.41;46.22;100216.21;101682;1347;61272;-81
2022/04/24 14:36:39;;;;;;;;;;;;;;;;;;;;;
2022/04/24 14:39:28;;;;;;;;;;;;;;;18.42;46.20;100211.84;101176;1350;75946;-86
2022/04/24 14:42:12;;;;;;;;;;;;;;;18.42;46.15;100210.06;101108;1354;61556;-83
2022/04/24 14:58:42;;;;;;;;;;;;;;;18.43;46.13;100206.25;101672;1347;61525;-81
2022/04/24 15:01:33;;;;;;;;;;;;;;;18.42;46.06;100200.05;101807;1337;74036;-80
2022/04/24 15:04:20;;;;;;;;;;;;;;;18.43;46.04;100197.89;101965;1338;73878;-87
2022/04/24 15:07:28;;;;;;;;;;;;;;;18.43;46.04;100197.35;102385;1332;61504;-89
2022/04/24 15:10:44;;;;;;;;;;;;;;;;;;;;;
2022/04/24 15:13:32;;;;;;;;;;;;;;;18.43;46.07;100188.42;102851;1322;73963;-84
2022/04/24 15:16:32;;;;;;;;;;;;;;;18.43;46.11;100186.45;103289;1322;75723;-87
2022/04/24 15:19:20;;;;;;;;;;;;;;;;;;;;;
2022/04/24 15:22:11;;;;;;;;;;;;;;;18.44;46.20;100186.77;104223;1314;61331;-83
2022/04/24 15:25:28;;;;;;;;;;;;;;;;;;;;;
2022/04/24 15:28:26;;;;;;;;;;;;;;;18.44;46.10;100186.05;104844;1306;73989;-83
2022/04/24 15:31:21;;;;;;;;;;;;;;;18.44;46.08;100182.67;104247;1314;61202;-85
2022/04/24 15:34:09;;;;;;;;;;;;;;;18.45;46.05;100180.34;103614;1318;61354;-85
2022/04/24 15:36:58;;;;;;;;;;;;;;;18.44;46.01;100182.52;103671;1319;73854;-82
2022/04/24 15:40:02;;;;;;;;;;;;;;;;;;;;;
2022/04/24 15:42:57;;;;;;;;;;;;;;;18.43;46.00;100177.73;103653;1319;61386;-82
2022/04/24 15:46:12;;;;;;;;;;;;;;;18.43;45.98;100175.27;102590;1332;61105;-82
2022/04/24 15:52:23;;;;;;;;;;;;;;;18.43;45.96;100174.35;101859;1341;73671;-85
2022/04/24 15:55:09;;;;;;;;;;;;;;;18.42;46.02;100169.27;101878;1341;61386;-85
2022/04/24 15:58:05;;;;;;;;;;;;;;;;;;;;;
2022/04/24 16:01:23;;;;;;;;;;;;;;;18.41;46.00;100164.48;101851;1341;73532;-86
2022/04/24 16:04:09;;;;;;;;;;;;;;;18.40;45.96;100164.55;101712;1344;74732;-80
2022/04/24 16:07:14;;;;;;;;;;;;;;;18.41;45.96;100165.45;101742;1345;61371;-79
2022/04/24 16:10:31;;;;;;;;;;;;;;;;;;;;;
2022/04/24 16:13:59;;;;;;;;;;;;;;;18.39;46.00;100152.34;102109;1335;71554;-90
2022/04/24 16:16:26;;;;;;;;;;;;;;;18.39;46.03;100154.65;101910;1336;73819;-82
2022/04/24 16:19:32;;;;;;;;;;;;;;;18.39;45.88;100153.25;102026;1335;61339;-85
2022/04/24 16:22:31;;;;;;;;;;;;;;;;;;;;;
2022/04/24 16:25:23;;;;;;;;;;;;;;;;;;;;;
2022/04/24 16:28:33;;;;;;;;;;;;;;;18.38;45.92;100155.66;102570;1327;75942;-86
2022/04/24 16:34:35;;;;;;;;;;;;;;;18.37;45.91;100155.54;101966;1338;61330;-89
2022/04/24 16:37:38;;;;;;;;;;;;;;;18.37;45.91;100158.06;101910;1338;73150;-83
2022/04/24 16:40:24;;;;;;;;;;;;;;;18.37;45.95;100158.95;101952;1335;74797;-86
2022/04/24 16:43:32;;;;;;;;;;;;;;;18.37;45.90;100157.73;102321;1335;62025;-83
2022/04/24 16:46:28;;;;;;;;;;;;;;;18.36;45.87;100157.42;102137;1335;61188;-85
2022/04/24 16:49:14;;;;;;;;;;;;;;;18.36;45.91;100159.35;102365;1333;73951;-82
2022/04/24 16:59:29;;;;;;;;;;;;;;;;;;;;;
2022/04/24 17:02:17;;;;;;;;;;;;;;;;;;;;;
2022/04/24 17:05:17;;;;;;;;;;;;;;;18.35;45.95;100160.99;102030;1338;73550;-87
2022/04/24 17:08:23;;;;;;;;;;;;;;;18.35;45.94;100162.61;101925;1338;61197;-82
2022/04/24 17:11:09;;;;;;;;;;;;;;;18.35;45.86;100156.94;102262;1326;61319;-83
2022/04/24 17:14:15;;;;;;;;;;;;;;;;;;;;;
2022/04/24 17:16:55;;;;;;;;;;;;;;;18.35;45.90;100158.00;102527;1330;75802;-86
2022/04/24 17:19:47;;;;;;;;;;;;;;;18.34;45.87;100158.41;102432;1332;61598;-83
2022/04/24 17:22:56;;;;;;;;;;;;;;;18.34;45.88;100156.09;102076;1335;61251;-83
2022/04/24 17:26:24;;;;;;;;;;;;;;;18.34;45.90;100155.04;102344;1335;73854;-85
2022/04/24 17:29:02;;;;;;;;;;;;;;;18.34;45.85;100158.77;102333;1329;73831;-85
2022/04/24 17:32:08;;;;;;;;;;;;;;;18.34;45.87;100158.78;102621;1328;61308;-87
2022/04/24 17:34:52;;;;;;;;;;;;;;;18.34;45.82;100158.61;102614;1329;61185;-82
2022/04/24 17:37:50;;;;;;;;;;;;;;;;;;;;;
2022/04/24 17:41:12;;;;;;;;;;;;;;;18.34;45.90;100157.36;101938;1337;75891;-81
2022/04/24 17:43:51;;;;;;;;;;;;;;;18.33;45.87;100155.49;102271;1329;61471;-84
2022/04/24 17:46:37;;;;;;;;;;;;;;;18.32;45.85;100154.98;102621;1326;61800;-81
2022/04/24 17:49:32;;;;;;;;;;;;;;;18.33;45.79;100150.89;102409;1335;71763;-86
2022/04/24 17:52:20;;;;;;;;;;;;;;;18.33;45.95;100154.25;102282;1334;75835;-88
2022/04/24 17:55:25;;;;;;;;;;;;;;;;;;;;;
2022/04/24 17:58:14;;;;;;;;;;;;;;;;;;;;;
2022/04/24 18:01:09;;;;;;;;;;;;;;;18.32;45.89;100164.84;102629;1329;72728;-80
2022/04/24 18:03:55;;;;;;;;;;;;;;;18.31;45.90;100163.80;102140;1335;73988;-81
2022/04/24 18:06:53;;;;;;;;;;;;;;;18.31;45.84;100160.40;102376;1335;61609;-85
2022/04/24 18:13:48;;;;;;;;;;;;;;;18.31;45.87;100158.48;101719;1344;73866;-83
2022/04/24 18:19:26;;;;;;;;;;;;;;;18.31;45.84;100157.79;101555;1347;61228;-85
2022/04/24 18:22:41;;;;;;;;;;;;;;;18.31;45.79;100160.08;101621;1347;62546;-88
2022/04/24 18:25:51;;;;;;;;;;;;;;;;;;;;;
2022/04/24 18:28:47;;;;;;;;;;;;;;;;;;;;;
2022/04/24 18:31:50;;;;;;;;;;;;;;;18.30;45.80;100165.64;101553;1350;61281;-81
2022/04/24 18:34:59;;;;;;;;;;;;;;;18.31;45.75;100169.55;101588;1350;61562;-85
2022/04/24 18:38:15;;;;;;;;;;;;;;;;;;;;;
2022/04/24 18:41:04;;;;;;;;;;;;;;;18.30;45.68;100174.20;101450;1348;75911;-88
2022/04/24 18:44:09;;;;;;;;;;;;;;;;;;;;;
2022/04/24 18:46:48;;;;;;;;;;;;;;;;;;;;;
2022/04/24 18:49:42;;;;;;;;;;;;;;;18.29;45.77;100166.08;101817;1341;73951;-87
2022/04/24 18:52:38;;;;;;;;;;;;;;;;;;;;;
2022/04/24 18:55:27;;;;;;;;;;;;;;;18.28;45.72;100170.59;101858;1341;63028;-83
2022/04/24 18:58:53;;;;;;;;;;;;;;;;;;;;;
2022/04/24 19:01:52;;;;;;;;;;;;;;;;;;;;;
2022/04/24 19:08:10;;;;;;;;;;;;;;;18.28;45.69;100161.34;101756;1341;61383;-85
2022/04/24 19:14:39;;;;;;;;;;;;;;;;;;;;;
2022/04/24 19:17:07;;;;;;;;;;;;;;;18.28;45.77;100159.73;101796;1341;74789;-83
2022/04/24 19:20:27;;;;;;;;;;;;;;;;;;;;;
2022/04/24 19:23:14;;;;;;;;;;;;;;;18.27;45.75;100158.89;101872;1341;61247;-86
2022/04/24 19:26:24;;;;;;;;;;;;;;;;;;;;;
2022/04/24 19:32:22;;;;;;;;;;;;;;;18.27;45.81;100152.85;101815;1345;61237;-85
2022/04/24 19:35:11;;;;;;;;;;;;;;;18.27;45.78;100150.91;101812;1341;61725;-85
2022/04/24 19:38:27;;;;;;;;;;;;;;;18.27;45.72;100147.48;101376;1353;71575;-82
2022/04/24 19:41:27;;;;;;;;;;;;;;;;;;;;;
2022/04/24 19:44:28;;;;;;;;;;;;;;;18.27;45.72;100147.00;101246;1353;61345;-90
2022/04/24 19:49:18;;;;;;;;;;;;;;;18.27;45.70;100146.46;101222;1352;61383;-78
2022/04/24 19:54:20;;;;;;;;;;;;;;;;;;;;;
2022/04/24 19:57:14;;;;;;;;;;;;;;;18.27;45.66;100149.80;101464;1350;61448;-84
2022/04/24 20:00:24;;;;;;;;;;;;;;;;;;;;;
2022/04/24 20:03:20;;;;;;;;;;;;;;;18.27;45.60;100149.83;101568;1346;72949;-85